aviador You're here:

GMMX Decoded Metar

MARRAKECH in MOROCCO
Report Time2017-08-06 08:00:00
UTC Time2017-08-22 16:31:12
Flight Rules Old
Wind080° at 08 kt
W.Decomp.*RWY 10: 7.7 kt HW 2.3 kt LCW
W.Rank080° ranks 14
Current wind is above 080° avg. (4.9)
Visibility9999 m
Phenomena:N/A
Clouds:Few 100 Hf
Expected CloudBase > 10,000 ft AGL from Temp-Dew spread
CeilingNone
Temp31°C (ISA +19)
Dew Point06°C (21% RH)
Heat Index29.1°C
AAT27.2°C
QNH1013 hPa
Density Alt3,829 ft
Elevation1,529 ft
Report Wrong Elevation
Raw Report
GMMX 060800Z 08008KT 9999 FEW100 31/06 Q1013 NOSIG=

Extra information for GMMX:More info

Metar Taf Metar & Taf Last 4 Metars F.Rules Stats Wind Profile Meteogram Temp Stats Airport Information Weather charts Add Link Nearby VenuesMetar ALERT Operation Metar Decoded Social comments